sensor_id;sensor_type;location;lat;lon;timestamp;P1;durP1;ratioP1;P2;durP2;ratioP2
44862;SDS011;30597;49.628;10.850;2023-08-01T00:00:02;2.57;;;2.30;;
44862;SDS011;30597;49.628;10.850;2023-08-01T00:02:30;2.63;;;2.17;;
44862;SDS011;30597;49.628;10.850;2023-08-01T00:04:56;2.63;;;2.10;;
44862;SDS011;30597;49.628;10.850;2023-08-01T00:07:21;2.00;;;1.67;;
44862;SDS011;30597;49.628;10.850;2023-08-01T00:09:47;2.80;;;1.90;;
44862;SDS011;30597;49.628;10.850;2023-08-01T00:12:12;2.20;;;1.63;;
44862;SDS011;30597;49.628;10.850;2023-08-01T00:14:39;3.27;;;2.27;;
44862;SDS011;30597;49.628;10.850;2023-08-01T00:17:04;2.00;;;1.80;;
44862;SDS011;30597;49.628;10.850;2023-08-01T00:19:30;2.47;;;2.10;;
44862;SDS011;30597;49.628;10.850;2023-08-01T00:21:56;2.53;;;2.10;;
44862;SDS011;30597;49.628;10.850;2023-08-01T00:24:21;2.53;;;1.97;;
44862;SDS011;30597;49.628;10.850;2023-08-01T00:26:47;2.00;;;1.80;;
44862;SDS011;30597;49.628;10.850;2023-08-01T00:29:13;2.20;;;1.80;;
44862;SDS011;30597;49.628;10.850;2023-08-01T00:31:38;2.73;;;2.13;;
44862;SDS011;30597;49.628;10.850;2023-08-01T00:34:04;2.23;;;1.97;;
44862;SDS011;30597;49.628;10.850;2023-08-01T00:36:29;2.40;;;2.20;;
44862;SDS011;30597;49.628;10.850;2023-08-01T00:38:55;2.10;;;1.83;;
44862;SDS011;30597;49.628;10.850;2023-08-01T00:41:20;2.70;;;2.00;;
44862;SDS011;30597;49.628;10.850;2023-08-01T00:43:46;2.20;;;2.00;;
44862;SDS011;30597;49.628;10.850;2023-08-01T00:46:11;2.00;;;1.80;;
44862;SDS011;30597;49.628;10.850;2023-08-01T00:48:37;2.37;;;2.17;;
44862;SDS011;30597;49.628;10.850;2023-08-01T00:51:04;1.80;;;1.43;;
44862;SDS011;30597;49.628;10.850;2023-08-01T00:53:31;2.40;;;1.73;;
44862;SDS011;30597;49.628;10.850;2023-08-01T00:55:57;2.37;;;2.17;;
44862;SDS011;30597;49.628;10.850;2023-08-01T00:58:23;2.33;;;2.13;;
44862;SDS011;30597;49.628;10.850;2023-08-01T01:00:49;4.77;;;1.73;;
44862;SDS011;30597;49.628;10.850;2023-08-01T01:03:15;2.30;;;2.10;;
44862;SDS011;30597;49.628;10.850;2023-08-01T01:05:47;2.00;;;1.80;;
44862;SDS011;30597;49.628;10.850;2023-08-01T01:08:19;2.33;;;1.80;;
44862;SDS011;30597;49.628;10.850;2023-08-01T01:10:45;2.57;;;1.90;;
44862;SDS011;30597;49.628;10.850;2023-08-01T01:13:10;2.87;;;2.00;;
44862;SDS011;30597;49.628;10.850;2023-08-01T01:15:36;2.37;;;2.13;;
44862;SDS011;30597;49.628;10.850;2023-08-01T01:18:01;2.30;;;2.07;;
44862;SDS011;30597;49.628;10.850;2023-08-01T01:20:30;2.60;;;1.90;;
44862;SDS011;30597;49.628;10.850;2023-08-01T01:22:59;2.87;;;2.10;;
44862;SDS011;30597;49.628;10.850;2023-08-01T01:25:26;2.20;;;2.00;;
44862;SDS011;30597;49.628;10.850;2023-08-01T01:27:52;1.83;;;1.73;;
44862;SDS011;30597;49.628;10.850;2023-08-01T01:30:19;2.40;;;1.90;;
44862;SDS011;30597;49.628;10.850;2023-08-01T01:32:46;2.33;;;1.70;;
44862;SDS011;30597;49.628;10.850;2023-08-01T01:35:12;26.87;;;2.87;;
44862;SDS011;30597;49.628;10.850;2023-08-01T01:37:37;2.80;;;1.93;;
44862;SDS011;30597;49.628;10.850;2023-08-01T01:40:03;2.17;;;1.97;;
44862;SDS011;30597;49.628;10.850;2023-08-01T01:42:29;2.97;;;2.07;;
44862;SDS011;30597;49.628;10.850;2023-08-01T01:44:54;2.00;;;1.80;;
44862;SDS011;30597;49.628;10.850;2023-08-01T01:47:20;2.80;;;2.07;;
44862;SDS011;30597;49.628;10.850;2023-08-01T01:49:45;2.13;;;1.90;;
44862;SDS011;30597;49.628;10.850;2023-08-01T01:52:11;5.40;;;1.80;;
44862;SDS011;30597;49.628;10.850;2023-08-01T01:54:36;3.20;;;2.10;;
44862;SDS011;30597;49.628;10.850;2023-08-01T01:57:02;1.80;;;1.40;;
44862;SDS011;30597;49.628;10.850;2023-08-01T01:59:27;2.47;;;2.20;;
44862;SDS011;30597;49.628;10.850;2023-08-01T02:01:53;2.10;;;1.90;;
44862;SDS011;30597;49.628;10.850;2023-08-01T02:04:18;2.00;;;1.80;;
44862;SDS011;30597;49.628;10.850;2023-08-01T02:06:44;2.23;;;1.77;;
44862;SDS011;30597;49.628;10.850;2023-08-01T02:09:10;2.33;;;1.87;;
44862;SDS011;30597;49.628;10.850;2023-08-01T02:11:35;3.40;;;2.23;;
44862;SDS011;30597;49.628;10.850;2023-08-01T02:14:01;2.13;;;1.93;;
44862;SDS011;30597;49.628;10.850;2023-08-01T02:16:28;2.27;;;1.43;;
44862;SDS011;30597;49.628;10.850;2023-08-01T02:18:53;2.50;;;1.73;;
44862;SDS011;30597;49.628;10.850;2023-08-01T02:21:19;2.10;;;1.73;;
44862;SDS011;30597;49.628;10.850;2023-08-01T02:23:44;2.30;;;2.10;;
44862;SDS011;30597;49.628;10.850;2023-08-01T02:26:10;2.30;;;2.07;;
44862;SDS011;30597;49.628;10.850;2023-08-01T02:28:35;2.37;;;1.90;;
44862;SDS011;30597;49.628;10.850;2023-08-01T02:31:01;2.50;;;2.07;;
44862;SDS011;30597;49.628;10.850;2023-08-01T02:33:26;2.13;;;1.87;;
44862;SDS011;30597;49.628;10.850;2023-08-01T02:35:52;2.63;;;2.33;;
44862;SDS011;30597;49.628;10.850;2023-08-01T02:38:17;2.87;;;2.20;;
44862;SDS011;30597;49.628;10.850;2023-08-01T02:40:43;2.40;;;2.10;;
44862;SDS011;30597;49.628;10.850;2023-08-01T02:43:08;2.20;;;2.00;;
44862;SDS011;30597;49.628;10.850;2023-08-01T02:45:34;2.60;;;2.20;;
44862;SDS011;30597;49.628;10.850;2023-08-01T02:47:59;1.20;;;1.10;;
44862;SDS011;30597;49.628;10.850;2023-08-01T02:50:25;2.23;;;2.03;;
44862;SDS011;30597;49.628;10.850;2023-08-01T02:52:50;2.17;;;1.77;;
44862;SDS011;30597;49.628;10.850;2023-08-01T02:55:16;1.97;;;1.70;;
44862;SDS011;30597;49.628;10.850;2023-08-01T02:57:41;2.13;;;1.70;;
44862;SDS011;30597;49.628;10.850;2023-08-01T03:00:07;1.80;;;1.63;;
44862;SDS011;30597;49.628;10.850;2023-08-01T03:02:36;2.10;;;1.90;;
44862;SDS011;30597;49.628;10.850;2023-08-01T03:05:03;2.10;;;2.00;;
44862;SDS011;30597;49.628;10.850;2023-08-01T03:07:30;3.50;;;2.43;;
44862;SDS011;30597;49.628;10.850;2023-08-01T03:09:56;2.73;;;2.10;;
44862;SDS011;30597;49.628;10.850;2023-08-01T03:12:21;1.80;;;1.70;;
44862;SDS011;30597;49.628;10.850;2023-08-01T03:14:47;2.63;;;2.20;;
44862;SDS011;30597;49.628;10.850;2023-08-01T03:17:12;3.50;;;2.20;;
44862;SDS011;30597;49.628;10.850;2023-08-01T03:19:38;2.10;;;1.73;;
44862;SDS011;30597;49.628;10.850;2023-08-01T03:22:04;5.87;;;2.37;;
44862;SDS011;30597;49.628;10.850;2023-08-01T03:24:29;8.07;;;2.37;;
44862;SDS011;30597;49.628;10.850;2023-08-01T03:26:55;3.90;;;2.20;;
44862;SDS011;30597;49.628;10.850;2023-08-01T03:29:21;7.37;;;2.77;;
44862;SDS011;30597;49.628;10.850;2023-08-01T03:31:46;7.30;;;2.23;;
44862;SDS011;30597;49.628;10.850;2023-08-01T03:34:12;5.07;;;2.40;;
44862;SDS011;30597;49.628;10.850;2023-08-01T03:36:38;7.53;;;2.90;;
44862;SDS011;30597;49.628;10.850;2023-08-01T03:39:03;5.27;;;2.67;;
44862;SDS011;30597;49.628;10.850;2023-08-01T03:41:29;8.47;;;2.63;;
44862;SDS011;30597;49.628;10.850;2023-08-01T03:43:56;7.63;;;3.00;;
44862;SDS011;30597;49.628;10.850;2023-08-01T03:46:21;7.80;;;2.67;;
44862;SDS011;30597;49.628;10.850;2023-08-01T03:48:47;5.77;;;3.13;;
44862;SDS011;30597;49.628;10.850;2023-08-01T03:51:12;4.23;;;3.07;;
44862;SDS011;30597;49.628;10.850;2023-08-01T03:53:40;8.37;;;2.87;;
44862;SDS011;30597;49.628;10.850;2023-08-01T03:56:06;7.53;;;2.70;;
44862;SDS011;30597;49.628;10.850;2023-08-01T03:58:32;4.93;;;2.67;;
44862;SDS011;30597;49.628;10.850;2023-08-01T04:00:58;5.20;;;2.97;;
44862;SDS011;30597;49.628;10.850;2023-08-01T04:03:23;7.00;;;3.00;;
44862;SDS011;30597;49.628;10.850;2023-08-01T04:05:49;5.23;;;3.33;;
44862;SDS011;30597;49.628;10.850;2023-08-01T04:08:14;3.83;;;2.40;;
44862;SDS011;30597;49.628;10.850;2023-08-01T04:10:40;6.40;;;2.60;;
44862;SDS011;30597;49.628;10.850;2023-08-01T04:13:05;2.50;;;2.30;;
44862;SDS011;30597;49.628;10.850;2023-08-01T04:15:31;4.93;;;2.33;;
44862;SDS011;30597;49.628;10.850;2023-08-01T04:17:56;4.37;;;3.10;;
44862;SDS011;30597;49.628;10.850;2023-08-01T04:20:22;4.47;;;2.70;;
44862;SDS011;30597;49.628;10.850;2023-08-01T04:22:47;4.23;;;2.80;;
44862;SDS011;30597;49.628;10.850;2023-08-01T04:25:13;5.70;;;2.37;;
44862;SDS011;30597;49.628;10.850;2023-08-01T04:27:38;3.37;;;2.40;;
44862;SDS011;30597;49.628;10.850;2023-08-01T04:30:04;4.73;;;2.87;;
44862;SDS011;30597;49.628;10.850;2023-08-01T04:32:30;4.03;;;2.60;;
44862;SDS011;30597;49.628;10.850;2023-08-01T04:34:56;5.47;;;3.13;;
44862;SDS011;30597;49.628;10.850;2023-08-01T04:37:21;4.87;;;2.67;;
44862;SDS011;30597;49.628;10.850;2023-08-01T04:39:48;6.63;;;2.70;;
44862;SDS011;30597;49.628;10.850;2023-08-01T04:42:13;3.17;;;2.40;;
44862;SDS011;30597;49.628;10.850;2023-08-01T04:44:39;2.50;;;2.27;;
44862;SDS011;30597;49.628;10.850;2023-08-01T04:47:05;2.70;;;2.23;;
44862;SDS011;30597;49.628;10.850;2023-08-01T04:49:30;4.33;;;3.10;;
44862;SDS011;30597;49.628;10.850;2023-08-01T04:51:56;4.00;;;2.30;;
44862;SDS011;30597;49.628;10.850;2023-08-01T04:54:22;3.80;;;2.37;;
44862;SDS011;30597;49.628;10.850;2023-08-01T04:56:47;4.20;;;3.00;;
44862;SDS011;30597;49.628;10.850;2023-08-01T04:59:13;2.50;;;2.30;;
44862;SDS011;30597;49.628;10.850;2023-08-01T05:01:38;3.80;;;2.60;;
44862;SDS011;30597;49.628;10.850;2023-08-01T05:04:04;3.27;;;2.90;;
44862;SDS011;30597;49.628;10.850;2023-08-01T05:06:29;3.80;;;2.60;;
44862;SDS011;30597;49.628;10.850;2023-08-01T05:08:55;3.90;;;2.77;;
44862;SDS011;30597;49.628;10.850;2023-08-01T05:11:22;4.10;;;2.13;;
44862;SDS011;30597;49.628;10.850;2023-08-01T05:13:48;7.30;;;3.07;;
44862;SDS011;30597;49.628;10.850;2023-08-01T05:16:14;5.43;;;2.90;;
44862;SDS011;30597;49.628;10.850;2023-08-01T05:18:39;4.30;;;2.40;;
44862;SDS011;30597;49.628;10.850;2023-08-01T05:21:05;2.87;;;2.20;;
44862;SDS011;30597;49.628;10.850;2023-08-01T05:23:30;4.70;;;2.67;;
44862;SDS011;30597;49.628;10.850;2023-08-01T05:25:56;5.17;;;2.87;;
44862;SDS011;30597;49.628;10.850;2023-08-01T05:28:21;4.10;;;2.67;;
44862;SDS011;30597;49.628;10.850;2023-08-01T05:30:47;4.07;;;3.10;;
44862;SDS011;30597;49.628;10.850;2023-08-01T05:33:13;4.27;;;2.90;;
44862;SDS011;30597;49.628;10.850;2023-08-01T05:35:38;2.67;;;2.27;;
44862;SDS011;30597;49.628;10.850;2023-08-01T05:38:04;5.20;;;2.67;;
44862;SDS011;30597;49.628;10.850;2023-08-01T05:40:29;4.07;;;2.23;;
44862;SDS011;30597;49.628;10.850;2023-08-01T05:42:55;2.97;;;2.67;;
44862;SDS011;30597;49.628;10.850;2023-08-01T05:45:20;3.90;;;3.20;;
44862;SDS011;30597;49.628;10.850;2023-08-01T05:47:46;4.90;;;3.40;;
44862;SDS011;30597;49.628;10.850;2023-08-01T05:50:11;4.10;;;3.03;;
44862;SDS011;30597;49.628;10.850;2023-08-01T05:52:37;3.80;;;3.00;;
44862;SDS011;30597;49.628;10.850;2023-08-01T05:55:03;3.00;;;2.30;;
44862;SDS011;30597;49.628;10.850;2023-08-01T05:57:29;4.17;;;2.50;;
44862;SDS011;30597;49.628;10.850;2023-08-01T05:59:55;3.90;;;2.67;;
44862;SDS011;30597;49.628;10.850;2023-08-01T06:02:20;5.63;;;2.73;;
44862;SDS011;30597;49.628;10.850;2023-08-01T06:04:46;4.63;;;2.47;;
44862;SDS011;30597;49.628;10.850;2023-08-01T06:07:11;3.50;;;2.47;;
44862;SDS011;30597;49.628;10.850;2023-08-01T06:09:37;3.73;;;2.27;;
44862;SDS011;30597;49.628;10.850;2023-08-01T06:12:02;4.10;;;2.50;;
44862;SDS011;30597;49.628;10.850;2023-08-01T06:14:28;2.00;;;1.80;;
44862;SDS011;30597;49.628;10.850;2023-08-01T06:16:54;3.50;;;2.90;;
44862;SDS011;30597;49.628;10.850;2023-08-01T06:19:19;3.13;;;2.60;;
44862;SDS011;30597;49.628;10.850;2023-08-01T06:21:45;2.70;;;2.33;;
44862;SDS011;30597;49.628;10.850;2023-08-01T06:24:10;2.90;;;1.97;;
44862;SDS011;30597;49.628;10.850;2023-08-01T06:26:36;4.20;;;2.50;;
44862;SDS011;30597;49.628;10.850;2023-08-01T06:29:02;4.37;;;2.63;;
44862;SDS011;30597;49.628;10.850;2023-08-01T06:31:27;2.73;;;2.27;;
44862;SDS011;30597;49.628;10.850;2023-08-01T06:33:53;3.20;;;2.47;;
44862;SDS011;30597;49.628;10.850;2023-08-01T06:36:18;2.83;;;2.53;;
44862;SDS011;30597;49.628;10.850;2023-08-01T06:38:44;2.77;;;2.33;;
44862;SDS011;30597;49.628;10.850;2023-08-01T06:41:09;3.97;;;2.40;;
44862;SDS011;30597;49.628;10.850;2023-08-01T06:43:35;6.13;;;2.50;;
44862;SDS011;30597;49.628;10.850;2023-08-01T06:46:03;3.87;;;2.50;;
44862;SDS011;30597;49.628;10.850;2023-08-01T06:48:30;2.83;;;2.40;;
44862;SDS011;30597;49.628;10.850;2023-08-01T06:50:56;2.60;;;1.97;;
44862;SDS011;30597;49.628;10.850;2023-08-01T06:53:22;6.13;;;2.73;;
44862;SDS011;30597;49.628;10.850;2023-08-01T06:55:48;2.90;;;2.60;;
44862;SDS011;30597;49.628;10.850;2023-08-01T06:58:13;2.40;;;2.20;;
44862;SDS011;30597;49.628;10.850;2023-08-01T07:00:39;3.57;;;2.70;;
44862;SDS011;30597;49.628;10.850;2023-08-01T07:03:04;2.23;;;2.00;;
44862;SDS011;30597;49.628;10.850;2023-08-01T07:05:30;4.90;;;2.93;;
44862;SDS011;30597;49.628;10.850;2023-08-01T07:07:55;3.90;;;2.30;;
44862;SDS011;30597;49.628;10.850;2023-08-01T07:10:23;4.10;;;2.47;;
44862;SDS011;30597;49.628;10.850;2023-08-01T07:12:48;2.70;;;2.03;;
44862;SDS011;30597;49.628;10.850;2023-08-01T07:15:14;2.53;;;2.30;;
44862;SDS011;30597;49.628;10.850;2023-08-01T07:17:40;3.37;;;2.40;;
44862;SDS011;30597;49.628;10.850;2023-08-01T07:20:05;2.83;;;1.97;;
44862;SDS011;30597;49.628;10.850;2023-08-01T07:22:31;3.63;;;2.53;;
44862;SDS011;30597;49.628;10.850;2023-08-01T07:24:56;2.80;;;2.50;;
44862;SDS011;30597;49.628;10.850;2023-08-01T07:27:22;3.77;;;2.43;;
44862;SDS011;30597;49.628;10.850;2023-08-01T07:29:47;3.57;;;2.40;;
44862;SDS011;30597;49.628;10.850;2023-08-01T07:32:14;3.70;;;2.73;;
44862;SDS011;30597;49.628;10.850;2023-08-01T07:34:39;2.50;;;2.20;;
44862;SDS011;30597;49.628;10.850;2023-08-01T07:37:05;3.07;;;2.77;;
44862;SDS011;30597;49.628;10.850;2023-08-01T07:39:31;4.00;;;2.40;;
44862;SDS011;30597;49.628;10.850;2023-08-01T07:41:56;2.97;;;2.43;;
44862;SDS011;30597;49.628;10.850;2023-08-01T07:44:24;4.60;;;2.30;;
44862;SDS011;30597;49.628;10.850;2023-08-01T07:46:50;2.50;;;2.07;;
44862;SDS011;30597;49.628;10.850;2023-08-01T07:49:15;2.47;;;2.07;;
44862;SDS011;30597;49.628;10.850;2023-08-01T07:51:41;3.10;;;2.20;;
44862;SDS011;30597;49.628;10.850;2023-08-01T07:54:06;2.40;;;1.97;;
44862;SDS011;30597;49.628;10.850;2023-08-01T07:56:32;3.33;;;2.50;;
44862;SDS011;30597;49.628;10.850;2023-08-01T07:58:57;4.00;;;2.60;;
44862;SDS011;30597;49.628;10.850;2023-08-01T08:01:23;2.50;;;2.10;;
44862;SDS011;30597;49.628;10.850;2023-08-01T08:03:48;3.73;;;2.40;;
44862;SDS011;30597;49.628;10.850;2023-08-01T08:06:14;2.70;;;2.10;;
44862;SDS011;30597;49.628;10.850;2023-08-01T08:08:39;4.73;;;2.70;;
44862;SDS011;30597;49.628;10.850;2023-08-01T08:11:05;1.90;;;1.80;;
44862;SDS011;30597;49.628;10.850;2023-08-01T08:13:31;2.53;;;2.10;;
44862;SDS011;30597;49.628;10.850;2023-08-01T08:15:56;2.53;;;2.30;;
44862;SDS011;30597;49.628;10.850;2023-08-01T08:18:22;2.60;;;2.40;;
44862;SDS011;30597;49.628;10.850;2023-08-01T08:20:48;2.53;;;2.33;;
44862;SDS011;30597;49.628;10.850;2023-08-01T08:23:14;2.30;;;2.10;;
44862;SDS011;30597;49.628;10.850;2023-08-01T08:25:40;2.80;;;2.30;;
44862;SDS011;30597;49.628;10.850;2023-08-01T08:28:06;3.10;;;2.73;;
44862;SDS011;30597;49.628;10.850;2023-08-01T08:30:32;3.20;;;2.57;;
44862;SDS011;30597;49.628;10.850;2023-08-01T08:32:58;2.67;;;2.17;;
44862;SDS011;30597;49.628;10.850;2023-08-01T08:35:28;2.77;;;2.30;;
44862;SDS011;30597;49.628;10.850;2023-08-01T08:37:55;3.20;;;2.20;;
44862;SDS011;30597;49.628;10.850;2023-08-01T08:40:20;2.00;;;1.80;;
44862;SDS011;30597;49.628;10.850;2023-08-01T08:42:46;2.97;;;2.10;;
44862;SDS011;30597;49.628;10.850;2023-08-01T08:45:13;4.40;;;2.73;;
44862;SDS011;30597;49.628;10.850;2023-08-01T08:47:43;3.00;;;2.70;;
44862;SDS011;30597;49.628;10.850;2023-08-01T08:50:13;2.63;;;2.30;;
44862;SDS011;30597;49.628;10.850;2023-08-01T08:52:39;2.50;;;2.27;;
44862;SDS011;30597;49.628;10.850;2023-08-01T08:55:05;2.87;;;2.60;;
44862;SDS011;30597;49.628;10.850;2023-08-01T08:57:32;5.43;;;2.10;;
44862;SDS011;30597;49.628;10.850;2023-08-01T08:59:58;3.40;;;2.30;;
44862;SDS011;30597;49.628;10.850;2023-08-01T09:02:26;2.77;;;2.27;;
44862;SDS011;30597;49.628;10.850;2023-08-01T09:04:52;3.20;;;2.63;;
44862;SDS011;30597;49.628;10.850;2023-08-01T09:07:18;2.57;;;2.00;;
44862;SDS011;30597;49.628;10.850;2023-08-01T09:09:48;2.57;;;2.13;;
44862;SDS011;30597;49.628;10.850;2023-08-01T09:12:14;2.33;;;2.10;;
44862;SDS011;30597;49.628;10.850;2023-08-01T09:14:39;3.67;;;2.70;;
44862;SDS011;30597;49.628;10.850;2023-08-01T09:17:09;2.13;;;1.93;;
44862;SDS011;30597;49.628;10.850;2023-08-01T09:19:34;2.47;;;2.07;;
44862;SDS011;30597;49.628;10.850;2023-08-01T09:22:01;3.50;;;2.33;;
44862;SDS011;30597;49.628;10.850;2023-08-01T09:24:27;3.00;;;2.40;;
44862;SDS011;30597;49.628;10.850;2023-08-01T09:26:52;2.40;;;2.10;;
44862;SDS011;30597;49.628;10.850;2023-08-01T09:29:26;3.23;;;2.70;;
44862;SDS011;30597;49.628;10.850;2023-08-01T09:31:52;3.67;;;2.43;;
44862;SDS011;30597;49.628;10.850;2023-08-01T09:34:23;3.20;;;2.30;;
44862;SDS011;30597;49.628;10.850;2023-08-01T09:36:50;3.70;;;2.60;;
44862;SDS011;30597;49.628;10.850;2023-08-01T09:39:22;2.70;;;2.20;;
44862;SDS011;30597;49.628;10.850;2023-08-01T09:41:57;3.23;;;2.70;;
44862;SDS011;30597;49.628;10.850;2023-08-01T09:44:24;4.10;;;2.67;;
44862;SDS011;30597;49.628;10.850;2023-08-01T09:46:55;2.60;;;2.23;;
44862;SDS011;30597;49.628;10.850;2023-08-01T09:49:24;3.30;;;2.43;;
44862;SDS011;30597;49.628;10.850;2023-08-01T09:51:50;3.77;;;2.13;;
44862;SDS011;30597;49.628;10.850;2023-08-01T09:54:16;3.30;;;2.70;;
44862;SDS011;30597;49.628;10.850;2023-08-01T09:56:44;2.83;;;2.53;;
44862;SDS011;30597;49.628;10.850;2023-08-01T09:59:10;4.10;;;2.63;;
44862;SDS011;30597;49.628;10.850;2023-08-01T10:01:36;3.50;;;2.50;;
44862;SDS011;30597;49.628;10.850;2023-08-01T10:04:04;3.20;;;2.50;;
44862;SDS011;30597;49.628;10.850;2023-08-01T10:06:34;3.43;;;2.50;;
44862;SDS011;30597;49.628;10.850;2023-08-01T10:09:03;3.10;;;2.23;;
44862;SDS011;30597;49.628;10.850;2023-08-01T10:11:30;3.30;;;2.37;;
44862;SDS011;30597;49.628;10.850;2023-08-01T10:13:59;4.47;;;2.70;;
44862;SDS011;30597;49.628;10.850;2023-08-01T10:16:27;5.60;;;3.00;;
44862;SDS011;30597;49.628;10.850;2023-08-01T10:18:54;4.67;;;2.80;;
44862;SDS011;30597;49.628;10.850;2023-08-01T10:21:20;3.80;;;2.63;;
44862;SDS011;30597;49.628;10.850;2023-08-01T10:23:46;3.30;;;2.43;;
44862;SDS011;30597;49.628;10.850;2023-08-01T10:26:12;5.27;;;3.20;;
44862;SDS011;30597;49.628;10.850;2023-08-01T10:28:39;3.03;;;2.73;;
44862;SDS011;30597;49.628;10.850;2023-08-01T10:31:07;3.70;;;2.57;;
44862;SDS011;30597;49.628;10.850;2023-08-01T10:33:34;4.77;;;3.40;;
44862;SDS011;30597;49.628;10.850;2023-08-01T10:36:00;5.10;;;3.93;;
44862;SDS011;30597;49.628;10.850;2023-08-01T10:38:25;3.97;;;3.17;;
44862;SDS011;30597;49.628;10.850;2023-08-01T10:40:51;5.03;;;3.30;;
44862;SDS011;30597;49.628;10.850;2023-08-01T10:43:20;3.30;;;3.00;;
44862;SDS011;30597;49.628;10.850;2023-08-01T10:45:47;5.53;;;3.70;;
44862;SDS011;30597;49.628;10.850;2023-08-01T10:48:13;3.70;;;3.33;;
44862;SDS011;30597;49.628;10.850;2023-08-01T10:50:39;3.50;;;2.93;;
44862;SDS011;30597;49.628;10.850;2023-08-01T10:53:05;4.13;;;2.90;;
44862;SDS011;30597;49.628;10.850;2023-08-01T10:55:43;5.80;;;2.90;;
44862;SDS011;30597;49.628;10.850;2023-08-01T10:58:12;4.07;;;3.67;;
44862;SDS011;30597;49.628;10.850;2023-08-01T11:00:37;4.20;;;3.10;;
44862;SDS011;30597;49.628;10.850;2023-08-01T11:03:03;4.53;;;3.17;;
44862;SDS011;30597;49.628;10.850;2023-08-01T11:05:32;4.20;;;3.63;;
44862;SDS011;30597;49.628;10.850;2023-08-01T11:08:01;3.63;;;3.27;;
44862;SDS011;30597;49.628;10.850;2023-08-01T11:10:29;4.40;;;3.20;;
44862;SDS011;30597;49.628;10.850;2023-08-01T11:12:55;4.77;;;2.97;;
44862;SDS011;30597;49.628;10.850;2023-08-01T11:15:21;5.60;;;3.07;;
44862;SDS011;30597;49.628;10.850;2023-08-01T11:17:52;4.13;;;2.80;;
44862;SDS011;30597;49.628;10.850;2023-08-01T11:20:20;4.90;;;3.03;;
44862;SDS011;30597;49.628;10.850;2023-08-01T11:22:55;4.00;;;3.50;;
44862;SDS011;30597;49.628;10.850;2023-08-01T11:25:31;3.77;;;3.13;;
44862;SDS011;30597;49.628;10.850;2023-08-01T11:28:08;3.87;;;2.97;;
44862;SDS011;30597;49.628;10.850;2023-08-01T11:30:34;4.83;;;3.40;;
44862;SDS011;30597;49.628;10.850;2023-08-01T11:33:01;4.87;;;3.50;;
44862;SDS011;30597;49.628;10.850;2023-08-01T11:35:29;4.40;;;3.60;;
44862;SDS011;30597;49.628;10.850;2023-08-01T11:37:55;3.50;;;3.20;;
44862;SDS011;30597;49.628;10.850;2023-08-01T11:40:21;3.83;;;3.40;;
44862;SDS011;30597;49.628;10.850;2023-08-01T11:42:50;3.07;;;2.77;;
44862;SDS011;30597;49.628;10.850;2023-08-01T11:45:16;4.10;;;3.67;;
44862;SDS011;30597;49.628;10.850;2023-08-01T11:47:45;4.27;;;3.20;;
44862;SDS011;30597;49.628;10.850;2023-08-01T11:50:12;3.30;;;3.00;;
44862;SDS011;30597;49.628;10.850;2023-08-01T11:52:37;3.27;;;2.73;;
44862;SDS011;30597;49.628;10.850;2023-08-01T11:55:03;3.43;;;3.13;;
44862;SDS011;30597;49.628;10.850;2023-08-01T11:57:29;3.93;;;2.70;;
44862;SDS011;30597;49.628;10.850;2023-08-01T11:59:55;3.07;;;2.77;;
44862;SDS011;30597;49.628;10.850;2023-08-01T12:04:54;3.50;;;2.70;;
44862;SDS011;30597;49.628;10.850;2023-08-01T12:07:20;3.47;;;3.17;;
44862;SDS011;30597;49.628;10.850;2023-08-01T12:10:01;3.97;;;3.03;;
44862;SDS011;30597;49.628;10.850;2023-08-01T12:12:27;2.97;;;2.30;;
44862;SDS011;30597;49.628;10.850;2023-08-01T12:14:53;2.90;;;2.43;;
44862;SDS011;30597;49.628;10.850;2023-08-01T12:17:19;3.13;;;2.83;;
44862;SDS011;30597;49.628;10.850;2023-08-01T12:19:45;3.37;;;2.90;;
44862;SDS011;30597;49.628;10.850;2023-08-01T12:22:11;3.90;;;3.50;;
44862;SDS011;30597;49.628;10.850;2023-08-01T12:24:37;3.07;;;2.77;;
44862;SDS011;30597;49.628;10.850;2023-08-01T12:27:09;3.37;;;2.57;;
44862;SDS011;30597;49.628;10.850;2023-08-01T12:29:35;2.53;;;2.20;;
44862;SDS011;30597;49.628;10.850;2023-08-01T12:32:04;3.70;;;2.90;;
44862;SDS011;30597;49.628;10.850;2023-08-01T12:34:31;3.37;;;2.50;;
44862;SDS011;30597;49.628;10.850;2023-08-01T12:36:57;4.57;;;3.27;;
44862;SDS011;30597;49.628;10.850;2023-08-01T12:39:23;2.83;;;2.17;;
44862;SDS011;30597;49.628;10.850;2023-08-01T12:41:50;3.43;;;2.20;;
44862;SDS011;30597;49.628;10.850;2023-08-01T12:44:18;3.30;;;3.00;;
44862;SDS011;30597;49.628;10.850;2023-08-01T12:46:43;3.77;;;3.07;;
44862;SDS011;30597;49.628;10.850;2023-08-01T12:49:09;3.73;;;2.67;;
44862;SDS011;30597;49.628;10.850;2023-08-01T12:51:34;3.03;;;2.60;;
44862;SDS011;30597;49.628;10.850;2023-08-01T12:54:00;3.63;;;2.80;;
44862;SDS011;30597;49.628;10.850;2023-08-01T12:56:25;3.23;;;2.63;;
44862;SDS011;30597;49.628;10.850;2023-08-01T12:58:51;3.10;;;2.40;;
44862;SDS011;30597;49.628;10.850;2023-08-01T13:01:16;3.20;;;2.67;;
44862;SDS011;30597;49.628;10.850;2023-08-01T13:03:42;4.30;;;3.40;;
44862;SDS011;30597;49.628;10.850;2023-08-01T13:06:10;2.93;;;2.60;;
44862;SDS011;30597;49.628;10.850;2023-08-01T13:08:37;3.17;;;2.63;;
44862;SDS011;30597;49.628;10.850;2023-08-01T13:11:09;2.77;;;2.30;;
44862;SDS011;30597;49.628;10.850;2023-08-01T13:13:36;3.70;;;2.90;;
44862;SDS011;30597;49.628;10.850;2023-08-01T13:16:01;3.63;;;2.80;;
44862;SDS011;30597;49.628;10.850;2023-08-01T13:18:27;3.13;;;2.30;;
44862;SDS011;30597;49.628;10.850;2023-08-01T13:20:52;3.47;;;2.87;;
44862;SDS011;30597;49.628;10.850;2023-08-01T13:23:18;3.40;;;2.63;;
44862;SDS011;30597;49.628;10.850;2023-08-01T13:25:43;2.30;;;2.10;;
44862;SDS011;30597;49.628;10.850;2023-08-01T13:28:11;2.50;;;2.30;;
44862;SDS011;30597;49.628;10.850;2023-08-01T13:30:37;2.90;;;2.60;;
44862;SDS011;30597;49.628;10.850;2023-08-01T13:33:02;2.90;;;2.60;;
44862;SDS011;30597;49.628;10.850;2023-08-01T13:35:28;2.60;;;2.30;;
44862;SDS011;30597;49.628;10.850;2023-08-01T13:37:53;2.80;;;2.50;;
44862;SDS011;30597;49.628;10.850;2023-08-01T13:40:19;2.50;;;2.30;;
44862;SDS011;30597;49.628;10.850;2023-08-01T13:42:44;3.03;;;2.47;;
44862;SDS011;30597;49.628;10.850;2023-08-01T13:45:10;3.53;;;2.63;;
44862;SDS011;30597;49.628;10.850;2023-08-01T13:47:35;2.37;;;2.17;;
44862;SDS011;30597;49.628;10.850;2023-08-01T13:50:01;3.20;;;2.80;;
44862;SDS011;30597;49.628;10.850;2023-08-01T13:52:26;2.90;;;2.30;;
44862;SDS011;30597;49.628;10.850;2023-08-01T13:54:52;2.87;;;2.30;;
44862;SDS011;30597;49.628;10.850;2023-08-01T13:57:18;2.70;;;2.50;;
44862;SDS011;30597;49.628;10.850;2023-08-01T13:59:43;2.20;;;1.97;;
44862;SDS011;30597;49.628;10.850;2023-08-01T14:02:09;4.70;;;2.70;;
44862;SDS011;30597;49.628;10.850;2023-08-01T14:04:35;3.80;;;2.40;;
44862;SDS011;30597;49.628;10.850;2023-08-01T14:07:00;2.60;;;2.30;;
44862;SDS011;30597;49.628;10.850;2023-08-01T14:09:27;2.60;;;2.40;;
44862;SDS011;30597;49.628;10.850;2023-08-01T14:11:54;2.60;;;2.20;;
44862;SDS011;30597;49.628;10.850;2023-08-01T14:14:19;3.20;;;2.63;;
44862;SDS011;30597;49.628;10.850;2023-08-01T14:16:45;2.50;;;2.27;;
44862;SDS011;30597;49.628;10.850;2023-08-01T14:19:10;2.60;;;2.10;;
44862;SDS011;30597;49.628;10.850;2023-08-01T14:21:36;2.97;;;2.70;;
44862;SDS011;30597;49.628;10.850;2023-08-01T14:24:01;3.10;;;2.10;;
44862;SDS011;30597;49.628;10.850;2023-08-01T14:26:27;2.60;;;2.20;;
44862;SDS011;30597;49.628;10.850;2023-08-01T14:28:53;3.40;;;2.90;;